Terminal Aerodrome Forecast
Issued by NWS

Home | Current Version | Previous Version | Graphics & Text | Print | Product List | Glossary On
Versions: 1 2 3 4 5 6 7 8 9 10 11 12 13 14 15
842
FTUS43 KLSX 022334
TAFSUS
TAF
KSUS 022334Z 0300/0324 23014G22KT P6SM SKC
     FM031000 27016G26KT P6SM OVC020
     FM032000 28015G25KT P6SM BKN035=

USA.gov is the U.S. government's official web portal to all federal, state and local government web resources and services.